createdAt,value
2022-08-26T00:00:58.659Z,98726.00
2022-08-26T00:03:27.917Z,98719.91
2022-08-26T00:05:54.574Z,98716.78
2022-08-26T00:08:21.293Z,98718.22
2022-08-26T00:10:48.121Z,98718.97
2022-08-26T00:13:15.525Z,98721.84
2022-08-26T00:15:46.964Z,98713.34
2022-08-26T00:18:21.771Z,98715.25
2022-08-26T00:20:49.156Z,98713.19
2022-08-26T00:23:15.628Z,98712.88
2022-08-26T00:25:42.733Z,98709.44
2022-08-26T00:28:11.020Z,98719.25
2022-08-26T00:30:37.964Z,98713.72
2022-08-26T00:33:06.173Z,98713.84
2022-08-26T00:35:36.819Z,98713.78
2022-08-26T00:38:03.468Z,98703.72
2022-08-26T00:40:35.437Z,98703.66
2022-08-26T00:43:02.652Z,98705.56
2022-08-26T00:45:47.121Z,98695.25
2022-08-26T00:48:15.728Z,98697.16
2022-08-26T00:50:49.202Z,98697.59
2022-08-26T00:53:25.937Z,98699.66
2022-08-26T00:56:02.472Z,98696.16
2022-08-26T00:58:31.525Z,98698.06
2022-08-26T01:00:58.036Z,98692.38
2022-08-26T01:03:26.773Z,98697.91
2022-08-26T01:05:55.261Z,98694.41
2022-08-26T01:08:26.224Z,98699.78
2022-08-26T01:10:55.970Z,98686.41
2022-08-26T01:13:23.136Z,98696.13
2022-08-26T01:15:54.925Z,98686.41
2022-08-26T01:18:21.530Z,98687.72
2022-08-26T01:20:57.661Z,98697.28
2022-08-26T01:23:26.272Z,98684.41
2022-08-26T01:25:54.886Z,98687.28
2022-08-26T01:28:32.693Z,98685.97
2022-08-26T01:31:02.168Z,98684.19
2022-08-26T01:33:42.604Z,98683.16
2022-08-26T01:36:09.459Z,98688.13
2022-08-26T01:38:35.956Z,98691.38
2022-08-26T01:41:03.583Z,98685.63
2022-08-26T01:43:46.592Z,98694.78
2022-08-26T01:46:16.069Z,98693.81
2022-08-26T01:48:43.305Z,98688.88
2022-08-26T01:51:11.100Z,98693.94
2022-08-26T01:53:38.385Z,98691.81
2022-08-26T01:56:12.721Z,98692.59
2022-08-26T01:58:46.412Z,98688.81
2022-08-26T02:01:12.911Z,98696.91
2022-08-26T02:03:43.531Z,98687.25
2022-08-26T02:06:10.330Z,98692.63
2022-08-26T02:08:42.474Z,98692.47
2022-08-26T02:11:09.025Z,98700.53
2022-08-26T02:13:39.120Z,98699.13
2022-08-26T02:16:08.413Z,98702.41
2022-08-26T02:18:37.143Z,98704.41
2022-08-26T02:21:04.504Z,98697.72
2022-08-26T02:23:33.389Z,98697.72
2022-08-26T02:26:07.394Z,98696.75
2022-08-26T02:28:36.260Z,98698.31
2022-08-26T02:31:03.165Z,98693.25
2022-08-26T02:33:31.509Z,98691.72
2022-08-26T02:35:58.013Z,98692.06
2022-08-26T02:38:24.484Z,98688.53
2022-08-26T02:40:50.905Z,98688.78
2022-08-26T02:43:17.743Z,98678.81
2022-08-26T02:45:47.516Z,98686.78
2022-08-26T02:48:16.108Z,98684.22
2022-08-26T02:50:45.278Z,98686.59
2022-08-26T02:53:14.708Z,98684.22
2022-08-26T02:55:41.872Z,98681.50
2022-08-26T02:58:08.764Z,98682.50
2022-08-26T03:00:37.579Z,98694.59
2022-08-26T03:03:05.647Z,98684.97
2022-08-26T03:05:32.062Z,98683.00
2022-08-26T03:08:00.237Z,98683.00
2022-08-26T03:10:26.800Z,98674.72
2022-08-26T03:12:53.779Z,98669.22
2022-08-26T03:15:20.401Z,98669.94
2022-08-26T03:17:47.626Z,98669.38
2022-08-26T03:20:15.583Z,98670.84
2022-08-26T03:22:44.352Z,98671.72
2022-08-26T03:25:11.896Z,98663.72
2022-08-26T03:27:38.389Z,98661.88
2022-08-26T03:30:24.791Z,98670.28
2022-08-26T03:32:53.033Z,98664.69
2022-08-26T03:35:19.527Z,98669.00
2022-08-26T03:37:48.969Z,98662.16
2022-08-26T03:40:16.066Z,98655.63
2022-08-26T03:42:46.905Z,98661.00
2022-08-26T03:45:15.012Z,98656.41
2022-08-26T03:47:42.064Z,98651.91
2022-08-26T03:50:10.578Z,98661.00
2022-08-26T03:52:39.705Z,98649.44
2022-08-26T03:55:10.343Z,98655.75
2022-08-26T03:57:37.046Z,98657.78
2022-08-26T04:00:05.913Z,98650.50
2022-08-26T04:02:32.861Z,98652.69
2022-08-26T04:04:59.579Z,98656.53
2022-08-26T04:07:26.086Z,98661.75
2022-08-26T04:09:58.839Z,98657.88
2022-08-26T04:12:26.859Z,98652.00
2022-08-26T04:14:57.164Z,98646.34
2022-08-26T04:17:29.560Z,98646.94
2022-08-26T04:19:56.066Z,98652.03
2022-08-26T04:22:26.448Z,98641.72
2022-08-26T04:24:56.588Z,98654.34
2022-08-26T04:27:23.513Z,98652.47
2022-08-26T04:29:55.142Z,98652.09
2022-08-26T04:32:21.897Z,98652.69
2022-08-26T04:34:48.285Z,98647.16
2022-08-26T04:37:15.096Z,98646.16
2022-08-26T04:39:41.568Z,98644.91
2022-08-26T04:42:08.125Z,98634.44
2022-08-26T04:44:36.943Z,98640.25
2022-08-26T04:47:03.416Z,98647.44
2022-08-26T04:49:35.214Z,98651.22
2022-08-26T04:52:02.232Z,98646.22
2022-08-26T04:54:28.944Z,98647.84
2022-08-26T04:56:57.757Z,98646.97
2022-08-26T04:59:25.113Z,98649.50
2022-08-26T05:01:52.523Z,98653.69
2022-08-26T05:04:20.193Z,98664.94
2022-08-26T05:06:48.027Z,98650.72
2022-08-26T05:09:15.290Z,98655.16
2022-08-26T05:11:42.138Z,98650.34
2022-08-26T05:14:08.904Z,98658.56
2022-08-26T05:16:35.385Z,98652.78
2022-08-26T05:19:02.954Z,98653.28
2022-08-26T05:21:29.369Z,98647.47
2022-08-26T05:23:56.320Z,98646.84
2022-08-26T05:26:25.774Z,98661.75
2022-08-26T05:28:54.852Z,98650.84
2022-08-26T05:31:27.660Z,98656.88
2022-08-26T05:33:54.508Z,98652.94
2022-08-26T05:36:23.260Z,98648.94
2022-08-26T05:38:55.276Z,98652.75
2022-08-26T05:41:21.768Z,98659.53
2022-08-26T05:43:48.133Z,98660.00
2022-08-26T05:46:15.526Z,98669.69
2022-08-26T05:48:44.248Z,98667.41
2022-08-26T05:51:11.738Z,98675.53
2022-08-26T05:53:38.863Z,98668.16
2022-08-26T05:56:06.194Z,98666.19
2022-08-26T05:58:33.456Z,98667.72
2022-08-26T06:01:05.833Z,98661.25
2022-08-26T06:03:33.943Z,98664.16
2022-08-26T06:06:04.192Z,98664.25
2022-08-26T06:08:33.406Z,98669.47
2022-08-26T06:11:01.651Z,98656.53
2022-08-26T06:13:30.363Z,98653.03
2022-08-26T06:16:03.250Z,98657.75
2022-08-26T06:18:34.710Z,98659.50
2022-08-26T06:21:15.681Z,98658.09
2022-08-26T06:24:04.623Z,98658.84
2022-08-26T06:26:32.487Z,98661.81
2022-08-26T06:28:59.347Z,98673.75
2022-08-26T06:31:28.979Z,98679.28
2022-08-26T06:33:55.903Z,98675.50
2022-08-26T06:36:27.277Z,98682.34
2022-08-26T06:38:54.888Z,98688.41
2022-08-26T06:41:22.682Z,98689.94
2022-08-26T06:43:49.448Z,98685.72
2022-08-26T06:46:17.718Z,98682.13
2022-08-26T06:48:45.015Z,98688.28
2022-08-26T06:51:16.872Z,98677.16
2022-08-26T06:53:50.278Z,98686.22
2022-08-26T06:56:20.066Z,98695.34
2022-08-26T06:58:46.801Z,98692.88
2022-08-26T07:01:19.783Z,98691.34
2022-08-26T07:03:48.017Z,98685.66
2022-08-26T07:06:14.824Z,98690.22
2022-08-26T07:08:43.057Z,98688.28
2022-08-26T07:11:10.172Z,98687.16
2022-08-26T07:13:37.750Z,98693.16
2022-08-26T07:16:08.233Z,98698.41
2022-08-26T07:18:36.917Z,98710.59
2022-08-26T07:21:07.740Z,98712.56
2022-08-26T07:23:34.656Z,98715.53
2022-08-26T07:26:05.292Z,98702.59
2022-08-26T07:28:31.735Z,98702.59
2022-08-26T07:30:58.207Z,98706.75
2022-08-26T07:33:27.095Z,98705.56
2022-08-26T07:35:56.737Z,98705.56
2022-08-26T07:38:24.779Z,98707.63
2022-08-26T07:40:51.218Z,98705.09
2022-08-26T07:43:18.431Z,98708.00
2022-08-26T07:45:46.331Z,98708.00
2022-08-26T07:48:12.794Z,98715.13
2022-08-26T07:50:49.443Z,98710.59
2022-08-26T07:53:18.007Z,98707.81
2022-08-26T07:55:45.986Z,98718.44
2022-08-26T07:58:12.396Z,98706.94
2022-08-26T08:00:39.134Z,98706.06
2022-08-26T08:03:05.887Z,98704.31
2022-08-26T08:05:33.760Z,98697.19
2022-08-26T08:08:01.338Z,98699.09
2022-08-26T08:10:48.774Z,98699.09
2022-08-26T08:13:15.454Z,98704.16
2022-08-26T08:15:44.750Z,98702.78
2022-08-26T08:18:11.280Z,98714.13
2022-08-26T08:20:44.698Z,98710.31
2022-08-26T08:23:15.677Z,98709.34
2022-08-26T08:25:42.065Z,98711.00
2022-08-26T08:28:09.091Z,98712.75
2022-08-26T08:30:39.651Z,98710.13
2022-08-26T08:33:06.232Z,98707.13
2022-08-26T08:35:36.080Z,98695.81
2022-08-26T08:38:04.217Z,98695.91
2022-08-26T08:40:31.332Z,98701.13
2022-08-26T08:43:06.120Z,98699.13
2022-08-26T08:45:37.100Z,98698.06
2022-08-26T08:48:06.937Z,98694.09
2022-08-26T08:50:59.956Z,98687.91
2022-08-26T08:53:34.492Z,98684.78
2022-08-26T08:56:23.846Z,98690.34
2022-08-26T08:58:51.532Z,98692.50
2022-08-26T09:01:53.928Z,98695.13
2022-08-26T09:04:42.339Z,98687.78
2022-08-26T09:07:10.529Z,98683.34
2022-08-26T09:09:45.260Z,98676.59
2022-08-26T09:12:14.894Z,98685.13
2022-08-26T09:14:43.946Z,98681.66
2022-08-26T09:17:23.960Z,98687.16
2022-08-26T09:19:56.025Z,98681.28
2022-08-26T09:22:34.655Z,98683.97
2022-08-26T09:25:01.569Z,98677.97
2022-08-26T09:27:52.663Z,98684.66
2022-08-26T09:30:25.332Z,98684.78
2022-08-26T09:33:11.302Z,98681.75
2022-08-26T09:35:40.943Z,98680.75
2022-08-26T09:38:26.728Z,98679.06
2022-08-26T09:40:56.199Z,98669.78
2022-08-26T09:43:28.404Z,98672.97
2022-08-26T09:46:09.525Z,98671.84
2022-08-26T09:48:40.588Z,98670.09
2022-08-26T09:51:27.862Z,98670.59
2022-08-26T09:53:58.511Z,98665.56
2022-08-26T09:56:32.844Z,98671.38
2022-08-26T09:59:01.997Z,98660.16
2022-08-26T10:01:42.172Z,98660.38
2022-08-26T10:04:14.575Z,98650.19
2022-08-26T10:06:43.708Z,98642.84
2022-08-26T10:09:13.544Z,98651.94
2022-08-26T10:11:44.466Z,98647.41
2022-08-26T10:14:37.333Z,98634.38
2022-08-26T10:17:12.088Z,98631.38
2022-08-26T10:19:55.943Z,98627.28
2022-08-26T10:22:38.964Z,98617.91
2022-08-26T10:25:12.387Z,98623.81
2022-08-26T10:27:52.774Z,98610.41
2022-08-26T10:30:22.385Z,98610.81
2022-08-26T10:32:51.567Z,98604.66
2022-08-26T10:35:19.300Z,98597.59
2022-08-26T10:37:50.890Z,98596.47
2022-08-26T10:40:23.380Z,98594.72
2022-08-26T10:42:50.002Z,98594.13
2022-08-26T10:45:19.721Z,98595.84
2022-08-26T10:47:46.338Z,98592.25
2022-08-26T10:50:15.082Z,98592.22
2022-08-26T10:52:56.899Z,98592.84
2022-08-26T10:55:34.843Z,98591.03
2022-08-26T10:58:06.503Z,98592.34
2022-08-26T11:00:57.405Z,98587.47
2022-08-26T11:03:34.363Z,98587.72
2022-08-26T11:06:19.092Z,98582.41
2022-08-26T11:08:47.636Z,98585.59
2022-08-26T11:11:34.861Z,98583.22
2022-08-26T11:14:03.192Z,98575.50
2022-08-26T11:16:42.961Z,98570.81
2022-08-26T11:19:13.781Z,98563.47
2022-08-26T11:21:43.661Z,98570.19
2022-08-26T11:24:31.754Z,98567.47
2022-08-26T11:26:58.191Z,98566.38
2022-08-26T11:29:43.550Z,98551.31
2022-08-26T11:32:24.098Z,98549.25
2022-08-26T11:34:59.335Z,98544.78
2022-08-26T11:37:32.287Z,98544.50
2022-08-26T11:40:00.780Z,98529.22
2022-08-26T11:42:32.928Z,98534.84
2022-08-26T11:45:01.373Z,98519.75
2022-08-26T11:47:31.437Z,98525.41
2022-08-26T11:50:27.388Z,98525.84
2022-08-26T11:53:01.785Z,98517.69
2022-08-26T11:55:29.903Z,98512.03
2022-08-26T11:57:57.922Z,98512.41
2022-08-26T12:00:26.884Z,98510.81
2022-08-26T12:02:55.590Z,98505.97
2022-08-26T12:05:34.659Z,98500.38
2022-08-26T12:08:07.049Z,98501.03
2022-08-26T12:10:34.476Z,98499.28
2022-08-26T12:13:05.324Z,98506.72
2022-08-26T12:15:32.356Z,98511.19
2022-08-26T12:18:15.876Z,98511.44
2022-08-26T12:21:08.250Z,98502.03
2022-08-26T12:23:38.167Z,98501.09
2022-08-26T12:26:11.070Z,98496.53
2022-08-26T12:28:48.566Z,98497.84
2022-08-26T12:31:20.657Z,98490.34
2022-08-26T12:33:48.748Z,98489.50
2022-08-26T12:36:22.192Z,98487.97
2022-08-26T12:38:48.675Z,98486.69
2022-08-26T12:41:35.062Z,98487.41
2022-08-26T12:44:01.528Z,98491.31
2022-08-26T12:46:29.084Z,98490.00
2022-08-26T12:49:01.042Z,98487.00
2022-08-26T12:51:29.088Z,98491.91
2022-08-26T12:53:55.779Z,98492.47
2022-08-26T12:56:27.901Z,98488.94
2022-08-26T12:59:16.513Z,98490.81
2022-08-26T13:01:44.498Z,98492.19
2022-08-26T13:04:29.660Z,98499.34
2022-08-26T13:07:14.399Z,98496.97
2022-08-26T13:09:42.378Z,98491.03
2022-08-26T13:12:11.585Z,98491.47
2022-08-26T13:14:38.137Z,98484.00
2022-08-26T13:17:07.410Z,98490.28
2022-08-26T13:19:33.958Z,98488.56
2022-08-26T13:22:00.600Z,98485.03
2022-08-26T13:24:38.426Z,98476.88
2022-08-26T13:27:06.078Z,98478.38
2022-08-26T13:29:32.595Z,98475.09
2022-08-26T13:31:59.498Z,98474.97
2022-08-26T13:34:26.891Z,98469.47
2022-08-26T13:36:54.623Z,98469.91
2022-08-26T13:39:21.241Z,98468.28
2022-08-26T13:41:54.845Z,98465.63
2022-08-26T13:44:21.754Z,98458.00
2022-08-26T13:46:48.482Z,98464.41
2022-08-26T13:49:18.141Z,98460.28
2022-08-26T13:51:44.634Z,98454.97
2022-08-26T13:54:12.680Z,98458.44
2022-08-26T13:56:39.159Z,98456.19
2022-08-26T13:59:06.380Z,98454.09
2022-08-26T14:01:36.175Z,98450.63
2022-08-26T14:04:06.045Z,98444.94
2022-08-26T14:06:32.692Z,98449.16
2022-08-26T14:08:59.141Z,98443.94
2022-08-26T14:11:25.675Z,98442.56
2022-08-26T14:13:52.421Z,98439.50
2022-08-26T14:16:24.330Z,98434.41
2022-08-26T14:18:54.083Z,98432.41
2022-08-26T14:21:20.931Z,98429.59
2022-08-26T14:23:47.611Z,98433.19
2022-08-26T14:26:21.406Z,98433.28
2022-08-26T14:28:55.942Z,98431.28
2022-08-26T14:31:23.842Z,98427.06
2022-08-26T14:33:50.454Z,98420.09
2022-08-26T14:36:28.618Z,98423.19
2022-08-26T14:38:55.716Z,98413.34
2022-08-26T14:41:24.526Z,98422.13
2022-08-26T14:43:57.997Z,98421.38
2022-08-26T14:46:31.715Z,98436.81
2022-08-26T14:49:01.412Z,98437.28
2022-08-26T14:51:28.206Z,98435.44
2022-08-26T14:54:12.879Z,98439.56
2022-08-26T14:56:44.821Z,98441.25
2022-08-26T14:59:11.591Z,98437.75
2022-08-26T15:01:38.037Z,98435.72
2022-08-26T15:04:04.690Z,98432.31
2022-08-26T15:06:31.925Z,98437.56
2022-08-26T15:08:59.027Z,98427.94
2022-08-26T15:11:27.990Z,98422.38
2022-08-26T15:13:54.499Z,98429.88
2022-08-26T15:16:21.463Z,98424.53
2022-08-26T15:18:48.404Z,98430.94
2022-08-26T15:21:16.115Z,98429.34
2022-08-26T15:23:42.690Z,98435.38
2022-08-26T15:26:14.543Z,98438.16
2022-08-26T15:28:41.486Z,98428.28
2022-08-26T15:31:08.674Z,98434.59
2022-08-26T15:33:35.878Z,98430.56
2022-08-26T15:36:03.211Z,98435.88
2022-08-26T15:38:34.951Z,98423.84
2022-08-26T15:41:05.371Z,98426.56
2022-08-26T15:43:31.979Z,98429.38
2022-08-26T15:45:58.466Z,98427.56
2022-08-26T15:48:25.067Z,98445.69
2022-08-26T15:50:53.623Z,98457.88
2022-08-26T15:53:21.542Z,98459.91
2022-08-26T15:55:48.386Z,98457.41
2022-08-26T15:58:16.114Z,98457.50
2022-08-26T16:00:46.461Z,98459.31
2022-08-26T16:03:13.186Z,98473.59
2022-08-26T16:05:40.401Z,98480.84
2022-08-26T16:08:07.842Z,98497.59
2022-08-26T16:10:36.011Z,98512.41
2022-08-26T16:13:02.505Z,98516.88
2022-08-26T16:15:29.055Z,98534.25
2022-08-26T16:17:59.547Z,98542.69
2022-08-26T16:20:26.158Z,98546.88
2022-08-26T16:22:52.755Z,98538.50
2022-08-26T16:25:20.189Z,98546.50
2022-08-26T16:27:46.759Z,98533.44
2022-08-26T16:30:16.437Z,98519.63
2022-08-26T16:32:43.140Z,98527.34
2022-08-26T16:35:09.725Z,98496.78
2022-08-26T16:37:37.741Z,98488.81
2022-08-26T16:40:06.597Z,98481.00
2022-08-26T16:42:33.268Z,98490.84
2022-08-26T16:44:59.763Z,98486.75
2022-08-26T16:47:26.421Z,98494.03
2022-08-26T16:49:52.996Z,98487.47
2022-08-26T16:52:20.067Z,98492.63
2022-08-26T16:54:47.490Z,98500.03
2022-08-26T16:57:14.247Z,98511.03
2022-08-26T16:59:41.525Z,98514.50
2022-08-26T17:02:08.069Z,98521.06
2022-08-26T17:04:34.583Z,98513.81
2022-08-26T17:07:04.414Z,98513.81
2022-08-26T17:09:31.537Z,98519.13
2022-08-26T17:11:58.031Z,98520.63
2022-08-26T17:14:24.706Z,98521.22
2022-08-26T17:16:53.281Z,98524.06
2022-08-26T17:19:20.382Z,98530.97
2022-08-26T17:21:50.345Z,98545.25
2022-08-26T17:24:16.852Z,98557.06
2022-08-26T17:26:44.405Z,98553.78
2022-08-26T17:29:16.990Z,98561.94
2022-08-26T17:31:43.591Z,98565.97
2022-08-26T17:34:10.101Z,98566.13
2022-08-26T17:36:36.685Z,98573.66
2022-08-26T17:39:03.544Z,98562.09
2022-08-26T17:41:33.621Z,98566.28
2022-08-26T17:44:00.109Z,98581.91
2022-08-26T17:46:26.832Z,98557.81
2022-08-26T17:48:53.342Z,98555.47
2022-08-26T17:51:19.842Z,98556.31
2022-08-26T17:53:46.759Z,98542.84
2022-08-26T17:56:18.643Z,98539.44
2022-08-26T17:58:51.494Z,98541.72
2022-08-26T18:01:18.891Z,98535.38
2022-08-26T18:03:45.462Z,98535.47
2022-08-26T18:06:13.000Z,98522.00
2022-08-26T18:08:40.208Z,98530.69
2022-08-26T18:11:14.325Z,98533.56
2022-08-26T18:13:47.318Z,98547.31
2022-08-26T18:16:15.074Z,98539.78
2022-08-26T18:18:42.256Z,98548.09
2022-08-26T18:21:18.840Z,98539.16
2022-08-26T18:23:46.158Z,98536.59
2022-08-26T18:26:32.897Z,98545.97
2022-08-26T18:29:03.936Z,98533.47
2022-08-26T18:31:30.876Z,98530.06
2022-08-26T18:34:00.145Z,98529.28
2022-08-26T18:36:30.616Z,98529.44
2022-08-26T18:38:57.445Z,98529.44
2022-08-26T18:41:26.661Z,98541.06
2022-08-26T18:43:53.525Z,98529.09
2022-08-26T18:46:20.964Z,98526.66
2022-08-26T18:48:51.387Z,98529.91
2022-08-26T18:51:22.163Z,98537.44
2022-08-26T18:53:54.237Z,98545.41
2022-08-26T18:56:20.627Z,98539.09
2022-08-26T18:58:47.492Z,98538.84
2022-08-26T19:01:14.594Z,98540.91
2022-08-26T19:03:43.780Z,98537.66
2022-08-26T19:06:17.254Z,98535.53
2022-08-26T19:08:49.966Z,98547.19
2022-08-26T19:11:17.357Z,98539.91
2022-08-26T19:14:03.030Z,98537.84
2022-08-26T19:16:36.183Z,98535.47
2022-08-26T19:19:03.917Z,98533.97
2022-08-26T19:21:33.058Z,98533.56
2022-08-26T19:24:01.012Z,98539.25
2022-08-26T19:26:28.572Z,98544.97
2022-08-26T19:28:55.051Z,98546.38
2022-08-26T19:31:24.948Z,98543.97
2022-08-26T19:33:51.522Z,98549.59
2022-08-26T19:36:21.782Z,98554.59
2022-08-26T19:38:48.565Z,98560.00
2022-08-26T19:41:15.803Z,98571.50
2022-08-26T19:43:42.711Z,98570.47
2022-08-26T19:46:10.840Z,98572.53
2022-08-26T19:48:38.415Z,98585.88
2022-08-26T19:51:07.303Z,98575.53
2022-08-26T19:53:36.294Z,98579.06
2022-08-26T19:56:02.956Z,98583.00
2022-08-26T19:58:29.431Z,98582.41
2022-08-26T20:00:55.886Z,98587.25
2022-08-26T20:03:23.189Z,98587.78
2022-08-26T20:05:49.702Z,98586.00
2022-08-26T20:08:22.224Z,98588.19
2022-08-26T20:10:49.703Z,98591.13
2022-08-26T20:13:16.519Z,98597.88
2022-08-26T20:15:46.150Z,98595.19
2022-08-26T20:18:50.948Z,98606.28
2022-08-26T20:21:26.803Z,98605.59
2022-08-26T20:23:54.638Z,98608.28
2022-08-26T20:26:21.090Z,98606.31
2022-08-26T20:28:47.582Z,98605.66
2022-08-26T20:31:18.556Z,98603.59
2022-08-26T20:33:46.432Z,98608.44
2022-08-26T20:36:14.843Z,98606.66
2022-08-26T20:38:41.353Z,98609.50
2022-08-26T20:41:07.873Z,98604.81
2022-08-26T20:43:34.333Z,98603.97
2022-08-26T20:46:00.955Z,98602.91
2022-08-26T20:48:27.488Z,98608.28
2022-08-26T20:50:59.103Z,98604.47
2022-08-26T20:53:30.105Z,98606.38
2022-08-26T20:56:00.673Z,98603.19
2022-08-26T20:58:27.128Z,98611.78
2022-08-26T21:00:56.717Z,98619.66
2022-08-26T21:03:27.834Z,98624.00
2022-08-26T21:05:54.768Z,98631.75
2022-08-26T21:08:21.231Z,98626.53
2022-08-26T21:10:51.116Z,98627.88
2022-08-26T21:13:18.923Z,98625.31
2022-08-26T21:15:48.285Z,98618.91
2022-08-26T21:18:14.781Z,98620.94
2022-08-26T21:20:41.283Z,98615.56
2022-08-26T21:23:07.733Z,98617.91
2022-08-26T21:25:34.228Z,98611.25
2022-08-26T21:28:00.635Z,98604.63
2022-08-26T21:30:27.211Z,98611.59
2022-08-26T21:32:53.696Z,98611.84
2022-08-26T21:35:23.063Z,98604.13
2022-08-26T21:37:51.848Z,98606.03
2022-08-26T21:40:18.559Z,98612.53
2022-08-26T21:42:45.052Z,98610.03
2022-08-26T21:45:11.560Z,98612.81
2022-08-26T21:47:38.292Z,98612.81
2022-08-26T21:50:05.322Z,98618.09
2022-08-26T21:52:31.785Z,98615.50
2022-08-26T21:54:59.455Z,98626.97
2022-08-26T21:57:26.787Z,98624.28
2022-08-26T21:59:53.633Z,98618.84
2022-08-26T22:02:20.849Z,98617.81
2022-08-26T22:04:48.980Z,98616.16
2022-08-26T22:07:17.265Z,98615.13
2022-08-26T22:09:43.905Z,98624.53
2022-08-26T22:12:12.015Z,98618.66
2022-08-26T22:14:39.670Z,98623.31
2022-08-26T22:17:06.473Z,98622.53
2022-08-26T22:19:46.154Z,98624.19
2022-08-26T22:22:13.253Z,98622.31
2022-08-26T22:24:39.988Z,98631.03
2022-08-26T22:27:06.456Z,98635.59
2022-08-26T22:29:33.311Z,98632.19
2022-08-26T22:32:00.001Z,98637.81
2022-08-26T22:34:26.547Z,98637.06
2022-08-26T22:36:53.034Z,98640.91
2022-08-26T22:39:21.336Z,98639.25
2022-08-26T22:41:48.591Z,98638.16
2022-08-26T22:44:15.608Z,98627.75
2022-08-26T22:46:42.250Z,98630.22
2022-08-26T22:49:09.582Z,98635.88
2022-08-26T22:51:36.358Z,98638.88
2022-08-26T22:54:02.802Z,98639.59
2022-08-26T22:56:29.952Z,98639.66
2022-08-26T22:58:56.471Z,98638.06
2022-08-26T23:01:22.905Z,98639.66
2022-08-26T23:03:49.428Z,98634.72
2022-08-26T23:06:18.685Z,98637.41
2022-08-26T23:08:47.026Z,98637.63
2022-08-26T23:11:14.312Z,98644.03
2022-08-26T23:13:41.034Z,98637.16
2022-08-26T23:16:11.019Z,98637.00
2022-08-26T23:18:38.387Z,98640.88
2022-08-26T23:21:05.063Z,98637.47
2022-08-26T23:23:31.783Z,98631.75
2022-08-26T23:25:58.391Z,98624.25
2022-08-26T23:28:26.413Z,98616.13
2022-08-26T23:30:53.860Z,98616.19
2022-08-26T23:33:20.526Z,98610.66
2022-08-26T23:35:47.009Z,98611.53
2022-08-26T23:38:14.784Z,98603.81
2022-08-26T23:40:41.343Z,98599.97
2022-08-26T23:43:08.806Z,98599.03
2022-08-26T23:45:35.921Z,98597.28
2022-08-26T23:48:03.186Z,98600.84
2022-08-26T23:50:49.032Z,98602.81
2022-08-26T23:53:22.319Z,98602.13
2022-08-26T23:55:49.706Z,98605.69
2022-08-26T23:58:16.766Z,98604.63
